createdAt,value
2022-12-13T00:00:49.316Z,100205.25
2022-12-13T00:03:36.203Z,100208.28
2022-12-13T00:06:05.317Z,100204.09
2022-12-13T00:08:32.155Z,100203.88
2022-12-13T00:11:19.370Z,100206.69
2022-12-13T00:13:49.402Z,100206.63
2022-12-13T00:16:17.105Z,100207.28
2022-12-13T00:18:48.960Z,100209.00
2022-12-13T00:21:20.994Z,100219.03
2022-12-13T00:23:48.121Z,100211.59
2022-12-13T00:26:17.348Z,100217.91
2022-12-13T00:28:44.313Z,100209.44
2022-12-13T00:31:51.530Z,100215.50
2022-12-13T00:33:58.750Z,100201.09
2022-12-13T00:36:26.876Z,100203.91
2022-12-13T00:39:02.840Z,100204.06
2022-12-13T00:41:31.654Z,100208.56
2022-12-13T00:43:58.662Z,100210.69
2022-12-13T00:46:26.584Z,100217.03
2022-12-13T00:48:54.991Z,100218.34
2022-12-13T00:51:41.804Z,100217.28
2022-12-13T00:54:12.839Z,100231.88
2022-12-13T00:56:39.770Z,100218.78
2022-12-13T00:59:07.012Z,100221.34
2022-12-13T01:01:34.748Z,100220.81
2022-12-13T01:04:02.692Z,100228.06
2022-12-13T01:06:29.639Z,100224.66
2022-12-13T01:08:59.054Z,100223.03
2022-12-13T01:11:25.811Z,100225.62
2022-12-13T01:13:52.723Z,100234.78
2022-12-13T01:16:20.029Z,100227.78
2022-12-13T01:18:47.576Z,100240.34
2022-12-13T01:21:18.168Z,100241.91
2022-12-13T01:23:45.330Z,100243.19
2022-12-13T01:26:17.764Z,100242.91
2022-12-13T01:28:44.658Z,100239.06
2022-12-13T01:31:13.123Z,100244.31
2022-12-13T01:33:40.387Z,100236.19
2022-12-13T01:36:28.412Z,100244.91
2022-12-13T01:39:15.848Z,100241.28
2022-12-13T01:41:44.524Z,100248.53
2022-12-13T01:44:29.861Z,100254.31
2022-12-13T01:46:56.703Z,100247.31
2022-12-13T01:49:23.636Z,100249.91
2022-12-13T01:51:56.268Z,100237.94
2022-12-13T01:54:34.198Z,100237.66
2022-12-13T01:57:03.722Z,100241.72
2022-12-13T01:59:30.566Z,100238.97
2022-12-13T02:02:01.016Z,100241.47
2022-12-13T02:04:34.509Z,100237.13
2022-12-13T02:07:13.050Z,100235.22
2022-12-13T02:09:41.556Z,100231.62
2022-12-13T02:12:09.005Z,100238.88
2022-12-13T02:14:38.104Z,100221.09
2022-12-13T02:17:16.856Z,100236.59
2022-12-13T02:19:58.700Z,100242.31
2022-12-13T02:22:40.675Z,100227.59
2022-12-13T02:27:53.219Z,100232.81
2022-12-13T02:30:48.422Z,100231.47
2022-12-13T02:33:25.059Z,100227.69
2022-12-13T02:35:57.799Z,100226.00
2022-12-13T02:38:37.858Z,100221.72
2022-12-13T02:41:16.832Z,100234.34
2022-12-13T02:44:01.364Z,100233.69
2022-12-13T02:46:30.552Z,100233.63
2022-12-13T02:49:00.096Z,100230.16
2022-12-13T02:51:27.824Z,100224.28
2022-12-13T02:53:54.710Z,100229.41
2022-12-13T02:56:22.654Z,100232.97
2022-12-13T02:58:53.656Z,100227.88
2022-12-13T03:01:28.592Z,100224.78
2022-12-13T03:04:03.027Z,100223.91
2022-12-13T03:06:34.077Z,100227.47
2022-12-13T03:09:10.773Z,100223.19
2022-12-13T03:12:08.061Z,100223.47
2022-12-13T03:14:36.801Z,100219.53
2022-12-13T03:17:06.550Z,100222.28
2022-12-13T03:19:33.520Z,100218.09
2022-12-13T03:22:00.601Z,100215.34
2022-12-13T03:24:27.602Z,100225.22
2022-12-13T03:26:54.363Z,100220.50
2022-12-13T03:29:23.974Z,100223.06
2022-12-13T03:31:51.891Z,100218.75
2022-12-13T03:34:22.312Z,100213.50
2022-12-13T03:36:50.102Z,100221.78
2022-12-13T03:39:17.051Z,100218.66
2022-12-13T03:41:44.042Z,100227.56
2022-12-13T03:44:11.239Z,100220.25
2022-12-13T03:46:38.294Z,100214.88
2022-12-13T03:49:06.591Z,100225.41
2022-12-13T03:51:33.757Z,100221.66
2022-12-13T03:54:00.809Z,100216.09
2022-12-13T03:56:29.661Z,100213.31
2022-12-13T03:59:00.049Z,100207.16
2022-12-13T04:01:26.851Z,100218.03
2022-12-13T04:03:55.286Z,100222.19
2022-12-13T04:06:24.020Z,100215.53
2022-12-13T04:08:53.341Z,100215.19
2022-12-13T04:11:42.578Z,100224.47
2022-12-13T04:14:23.807Z,100228.62
2022-12-13T04:16:55.090Z,100230.72
2022-12-13T04:19:24.278Z,100229.88
2022-12-13T04:21:54.714Z,100220.31
2022-12-13T04:24:31.299Z,100222.16
2022-12-13T04:27:07.211Z,100220.00
2022-12-13T04:29:37.757Z,100215.19
2022-12-13T04:32:05.441Z,100210.88
2022-12-13T04:35:12.721Z,100216.41
2022-12-13T04:37:43.748Z,100225.72
2022-12-13T04:40:22.816Z,100233.19
2022-12-13T04:46:10.868Z,100229.97
2022-12-13T04:51:36.419Z,100231.25
2022-12-13T04:54:23.955Z,100225.59
2022-12-13T04:56:55.268Z,100222.63
2022-12-13T05:02:05.177Z,100233.03
2022-12-13T05:04:33.622Z,100234.50
2022-12-13T05:07:03.527Z,100241.72
2022-12-13T05:09:31.381Z,100236.84
2022-12-13T05:12:01.046Z,100245.84
2022-12-13T05:14:35.129Z,100234.09
2022-12-13T05:17:05.260Z,100218.84
2022-12-13T05:19:32.780Z,100227.16
2022-12-13T05:22:01.573Z,100221.38
2022-12-13T05:24:29.829Z,100237.31
2022-12-13T05:26:57.895Z,100226.00
2022-12-13T05:29:29.200Z,100222.94
2022-12-13T05:31:58.296Z,100228.53
2022-12-13T05:34:25.697Z,100235.81
2022-12-13T05:36:52.876Z,100230.91
2022-12-13T05:39:28.013Z,100232.44
2022-12-13T05:42:01.056Z,100228.91
2022-12-13T05:44:43.991Z,100236.00
2022-12-13T05:47:12.867Z,100223.97
2022-12-13T05:49:39.898Z,100235.16
2022-12-13T05:52:15.548Z,100227.88
2022-12-13T05:54:42.953Z,100226.50
2022-12-13T05:57:10.461Z,100228.97
2022-12-13T05:59:37.278Z,100234.88
2022-12-13T06:02:06.436Z,100222.25
2022-12-13T06:04:34.634Z,100231.19
2022-12-13T06:07:01.914Z,100228.41
2022-12-13T06:09:29.829Z,100233.44
2022-12-13T06:12:00.920Z,100239.78
2022-12-13T06:14:28.836Z,100234.94
2022-12-13T06:16:57.917Z,100238.78
2022-12-13T06:19:27.438Z,100233.50
2022-12-13T06:22:11.880Z,100237.50
2022-12-13T06:24:42.181Z,100239.66
2022-12-13T06:27:28.877Z,100243.03
2022-12-13T06:30:13.985Z,100250.00
2022-12-13T06:32:44.089Z,100256.38
2022-12-13T06:35:28.657Z,100260.44
2022-12-13T06:38:01.124Z,100258.72
2022-12-13T06:40:34.106Z,100263.13
2022-12-13T06:43:01.281Z,100263.13
2022-12-13T06:45:28.122Z,100268.50
2022-12-13T06:47:56.269Z,100266.47
2022-12-13T06:50:27.020Z,100272.44
2022-12-13T06:52:58.139Z,100267.47
2022-12-13T06:55:24.793Z,100272.56
2022-12-13T06:57:52.208Z,100277.41
2022-12-13T07:00:22.420Z,100277.03
2022-12-13T07:02:54.256Z,100269.25
2022-12-13T07:05:22.197Z,100276.81
2022-12-13T07:08:11.411Z,100273.78
2022-12-13T07:10:40.775Z,100267.22
2022-12-13T07:13:07.613Z,100274.53
2022-12-13T07:15:34.828Z,100272.81
2022-12-13T07:18:02.949Z,100267.94
2022-12-13T07:20:29.854Z,100264.69
2022-12-13T07:22:58.767Z,100260.06
2022-12-13T07:25:27.555Z,100263.53
2022-12-13T07:28:01.065Z,100263.91
2022-12-13T07:30:28.858Z,100262.09
2022-12-13T07:32:55.598Z,100263.97
2022-12-13T07:35:25.131Z,100266.53
2022-12-13T07:37:51.963Z,100269.31
2022-12-13T07:40:18.770Z,100271.72
2022-12-13T07:42:52.109Z,100274.19
2022-12-13T07:45:19.287Z,100277.13
2022-12-13T07:47:46.092Z,100268.97
2022-12-13T07:50:24.164Z,100260.94
2022-12-13T07:52:52.164Z,100264.94
2022-12-13T07:55:18.952Z,100260.87
2022-12-13T07:57:50.322Z,100257.19
2022-12-13T08:00:17.588Z,100265.66
2022-12-13T08:02:44.268Z,100260.28
2022-12-13T08:05:26.421Z,100264.75
2022-12-13T08:07:55.947Z,100268.00
2022-12-13T08:10:22.836Z,100264.06
2022-12-13T08:12:52.396Z,100258.53
2022-12-13T08:15:19.480Z,100257.31
2022-12-13T08:17:48.459Z,100256.66
2022-12-13T08:20:22.273Z,100246.50
2022-12-13T08:23:01.626Z,100254.50
2022-12-13T08:25:31.763Z,100238.91
2022-12-13T08:28:01.659Z,100243.66
2022-12-13T08:30:31.148Z,100247.22
2022-12-13T08:32:57.938Z,100248.91
2022-12-13T08:35:33.479Z,100251.09
2022-12-13T08:38:02.915Z,100252.25
2022-12-13T08:40:29.679Z,100247.53
2022-12-13T08:42:56.576Z,100241.88
2022-12-13T08:45:24.537Z,100236.38
2022-12-13T08:47:51.461Z,100236.69
2022-12-13T08:50:18.376Z,100237.59
2022-12-13T08:52:51.794Z,100231.53
2022-12-13T08:55:23.771Z,100237.06
2022-12-13T08:58:01.166Z,100229.44
2022-12-13T09:00:28.698Z,100222.00
2022-12-13T09:03:04.757Z,100228.22
2022-12-13T09:05:35.174Z,100224.69
2022-12-13T09:08:24.179Z,100226.63
2022-12-13T09:11:01.587Z,100221.69
2022-12-13T09:13:39.434Z,100219.97
2022-12-13T09:16:23.277Z,100213.16
2022-12-13T09:18:54.725Z,100212.31
2022-12-13T09:21:22.680Z,100212.22
2022-12-13T09:24:01.380Z,100203.63
2022-12-13T09:26:29.015Z,100208.81
2022-12-13T09:29:10.281Z,100207.97
2022-12-13T09:31:41.221Z,100201.00
2022-12-13T09:34:09.273Z,100193.13
2022-12-13T09:36:40.001Z,100202.44
2022-12-13T09:39:07.074Z,100196.69
2022-12-13T09:41:41.162Z,100193.75
2022-12-13T09:44:32.115Z,100198.06
2022-12-13T09:47:14.076Z,100192.06
2022-12-13T09:49:52.162Z,100194.53
2022-12-13T09:52:22.514Z,100190.34
2022-12-13T09:54:51.563Z,100198.44
2022-12-13T09:57:31.577Z,100192.59
2022-12-13T10:00:13.401Z,100193.66
2022-12-13T10:02:45.782Z,100181.66
2022-12-13T10:05:23.308Z,100190.44
2022-12-13T10:07:53.111Z,100188.59
2022-12-13T10:10:20.274Z,100197.47
2022-12-13T10:12:50.816Z,100190.53
2022-12-13T10:15:24.420Z,100187.88
2022-12-13T10:17:55.195Z,100186.94
2022-12-13T10:20:28.401Z,100194.81
2022-12-13T10:23:31.414Z,100179.19
2022-12-13T10:25:50.973Z,100185.31
2022-12-13T10:28:26.014Z,100178.22
2022-12-13T10:30:55.205Z,100171.12
2022-12-13T10:33:24.827Z,100166.88
2022-12-13T10:36:07.872Z,100166.63
2022-12-13T10:38:39.087Z,100158.66
2022-12-13T10:41:25.792Z,100155.31
2022-12-13T10:44:08.319Z,100167.66
2022-12-13T10:46:38.868Z,100158.78
2022-12-13T10:49:16.184Z,100159.06
2022-12-13T10:51:43.617Z,100149.19
2022-12-13T10:54:25.589Z,100144.69
2022-12-13T10:56:56.236Z,100139.53
2022-12-13T10:59:33.501Z,100141.31
2022-12-13T11:02:04.031Z,100134.84
2022-12-13T11:04:32.422Z,100122.56
2022-12-13T11:07:21.067Z,100120.69
2022-12-13T11:09:52.573Z,100119.53
2022-12-13T11:12:24.211Z,100123.72
2022-12-13T11:15:01.648Z,100138.84
2022-12-13T11:17:29.998Z,100138.44
2022-12-13T11:19:58.541Z,100135.09
2022-12-13T11:22:35.143Z,100136.22
2022-12-13T11:25:04.278Z,100125.94
2022-12-13T11:27:46.451Z,100129.81
2022-12-13T11:30:25.736Z,100121.47
2022-12-13T11:33:00.360Z,100117.19
2022-12-13T11:35:43.054Z,100117.94
2022-12-13T11:38:11.839Z,100116.19
2022-12-13T11:40:43.337Z,100120.53
2022-12-13T11:43:31.124Z,100121.75
2022-12-13T11:45:59.620Z,100117.63
2022-12-13T11:48:35.676Z,100106.62
2022-12-13T11:51:07.819Z,100107.31
2022-12-13T11:53:56.715Z,100108.97
2022-12-13T11:56:27.834Z,100110.78
2022-12-13T11:59:07.077Z,100109.81
2022-12-13T12:01:42.098Z,100105.75
2022-12-13T12:04:14.799Z,100098.56
2022-12-13T12:06:48.724Z,100096.97
2022-12-13T12:09:18.030Z,100089.19
2022-12-13T12:11:45.154Z,100098.84
2022-12-13T12:14:21.728Z,100093.66
2022-12-13T12:17:01.184Z,100088.47
2022-12-13T12:19:37.032Z,100081.44
2022-12-13T12:22:18.605Z,100082.25
2022-12-13T12:24:47.411Z,100084.72
2022-12-13T12:27:32.881Z,100078.47
2022-12-13T12:30:07.813Z,100080.53
2022-12-13T12:32:42.231Z,100088.16
2022-12-13T12:35:20.514Z,100087.25
2022-12-13T12:38:04.204Z,100086.38
2022-12-13T12:41:23.186Z,100082.00
2022-12-13T12:43:41.414Z,100077.41
2022-12-13T12:47:09.029Z,100073.53
2022-12-13T12:49:46.937Z,100071.09
2022-12-13T12:52:41.197Z,100071.72
2022-12-13T12:55:29.580Z,100074.34
2022-12-13T12:57:58.179Z,100073.91
2022-12-13T13:00:30.899Z,100081.78
2022-12-13T13:03:26.880Z,100074.59
2022-12-13T13:06:13.369Z,100082.59
2022-12-13T13:08:54.970Z,100081.44
2022-12-13T13:11:32.201Z,100086.47
2022-12-13T13:14:03.878Z,100082.13
2022-12-13T13:16:41.003Z,100081.50
2022-12-13T13:19:15.435Z,100082.47
2022-12-13T13:21:48.746Z,100084.16
2022-12-13T13:27:11.391Z,100078.88
2022-12-13T13:29:49.079Z,100085.06
2022-12-13T13:32:41.206Z,100084.87
2022-12-13T13:35:27.856Z,100098.84
2022-12-13T13:37:58.279Z,100089.22
2022-12-13T13:40:31.893Z,100091.81
2022-12-13T13:43:16.462Z,100104.06
2022-12-13T13:45:51.911Z,100103.66
2022-12-13T13:48:24.701Z,100109.25
2022-12-13T13:51:15.442Z,100117.88
2022-12-13T13:53:44.924Z,100122.34
2022-12-13T13:56:32.710Z,100122.97
2022-12-13T13:59:26.792Z,100120.97
2022-12-13T14:02:27.809Z,100122.59
2022-12-13T14:05:10.880Z,100127.31
2022-12-13T14:07:40.838Z,100131.44
2022-12-13T14:10:29.997Z,100132.56
2022-12-13T14:13:12.690Z,100131.84
2022-12-13T14:15:51.731Z,100128.13
2022-12-13T14:18:22.516Z,100130.88
2022-12-13T14:21:00.083Z,100134.56
2022-12-13T14:23:39.793Z,100129.00
2022-12-13T14:26:28.505Z,100128.28
2022-12-13T14:28:57.144Z,100120.81
2022-12-13T14:31:33.864Z,100130.97
2022-12-13T14:34:25.317Z,100126.28
2022-12-13T14:37:01.237Z,100119.13
2022-12-13T14:39:29.828Z,100117.16
2022-12-13T14:41:58.931Z,100116.03
2022-12-13T14:44:34.892Z,100106.31
2022-12-13T14:47:04.562Z,100111.16
2022-12-13T14:49:34.069Z,100105.63
2022-12-13T14:52:26.890Z,100107.16
2022-12-13T14:55:08.475Z,100100.00
2022-12-13T14:57:41.988Z,100088.94
2022-12-13T15:00:43.428Z,100090.97
2022-12-13T15:03:22.445Z,100101.69
2022-12-13T15:05:52.577Z,100113.94
2022-12-13T15:08:20.178Z,100109.16
2022-12-13T15:10:48.878Z,100119.22
2022-12-13T15:13:24.832Z,100122.22
2022-12-13T15:15:57.765Z,100115.63
2022-12-13T15:18:27.961Z,100109.56
2022-12-13T15:20:59.366Z,100113.75
2022-12-13T15:23:48.876Z,100111.66
2022-12-13T15:26:29.048Z,100116.97
2022-12-13T15:28:58.389Z,100112.88
2022-12-13T15:31:25.233Z,100120.50
2022-12-13T15:33:52.044Z,100110.59
2022-12-13T15:36:23.055Z,100127.66
2022-12-13T15:38:55.885Z,100112.31
2022-12-13T15:41:30.773Z,100110.72
2022-12-13T15:43:59.514Z,100113.94
2022-12-13T15:46:33.024Z,100114.22
2022-12-13T15:49:03.368Z,100110.22
2022-12-13T15:51:30.946Z,100115.31
2022-12-13T15:54:06.109Z,100122.19
2022-12-13T15:56:41.802Z,100114.09
2022-12-13T15:59:25.050Z,100119.31
2022-12-13T16:01:58.244Z,100124.81
2022-12-13T16:04:30.189Z,100122.37
2022-12-13T16:07:01.521Z,100115.03
2022-12-13T16:09:33.827Z,100112.69
2022-12-13T16:12:02.082Z,100108.69
2022-12-13T16:14:31.038Z,100118.53
2022-12-13T16:17:00.709Z,100116.78
2022-12-13T16:19:35.559Z,100124.72
2022-12-13T16:22:08.280Z,100123.59
2022-12-13T16:24:36.419Z,100129.03
2022-12-13T16:27:08.609Z,100121.41
2022-12-13T16:29:36.196Z,100123.81
2022-12-13T16:32:08.064Z,100120.38
2022-12-13T16:34:36.310Z,100121.53
2022-12-13T16:37:03.167Z,100118.59
2022-12-13T16:39:35.556Z,100127.84
2022-12-13T16:42:02.285Z,100124.19
2022-12-13T16:44:32.128Z,100118.19
2022-12-13T16:47:12.404Z,100125.97
2022-12-13T16:49:45.544Z,100119.88
2022-12-13T16:52:12.348Z,100123.28
2022-12-13T16:54:39.119Z,100121.38
2022-12-13T16:57:05.876Z,100130.59
2022-12-13T16:59:33.839Z,100126.97
2022-12-13T17:02:06.859Z,100127.66
2022-12-13T17:04:38.346Z,100120.84
2022-12-13T17:07:14.831Z,100125.56
2022-12-13T17:09:47.103Z,100118.44
2022-12-13T17:12:15.318Z,100123.56
2022-12-13T17:14:47.536Z,100123.47
2022-12-13T17:17:17.543Z,100123.19
2022-12-13T17:19:45.668Z,100128.03
2022-12-13T17:22:17.057Z,100119.06
2022-12-13T17:24:46.282Z,100119.59
2022-12-13T17:27:22.704Z,100125.03
2022-12-13T17:29:49.809Z,100117.00
2022-12-13T17:32:16.668Z,100111.91
2022-12-13T17:34:43.518Z,100106.22
2022-12-13T17:37:10.717Z,100109.09
2022-12-13T17:39:38.013Z,100115.34
2022-12-13T17:42:06.128Z,100116.22
2022-12-13T17:44:33.035Z,100118.19
2022-12-13T17:47:01.525Z,100109.91
2022-12-13T17:49:28.583Z,100108.16
2022-12-13T17:51:55.856Z,100101.47
2022-12-13T17:54:27.866Z,100097.28
2022-12-13T17:57:14.608Z,100100.56
2022-12-13T17:59:43.253Z,100111.50
2022-12-13T18:02:12.148Z,100109.31
2022-12-13T18:04:41.029Z,100108.59
2022-12-13T18:07:08.082Z,100110.53
2022-12-13T18:09:36.814Z,100111.37
2022-12-13T18:12:03.742Z,100109.69
2022-12-13T18:14:30.483Z,100113.56
2022-12-13T18:16:57.283Z,100110.09
2022-12-13T18:19:26.022Z,100117.59
2022-12-13T18:21:52.799Z,100115.31
2022-12-13T18:24:19.477Z,100111.16
2022-12-13T18:26:48.164Z,100116.00
2022-12-13T18:29:14.822Z,100103.66
2022-12-13T18:31:41.775Z,100107.94
2022-12-13T18:34:10.908Z,100100.28
2022-12-13T18:36:39.639Z,100101.47
2022-12-13T18:39:06.552Z,100100.72
2022-12-13T18:41:33.354Z,100103.94
2022-12-13T18:44:04.533Z,100110.81
2022-12-13T18:46:34.800Z,100107.16
2022-12-13T18:49:01.670Z,100111.72
2022-12-13T18:51:28.556Z,100108.97
2022-12-13T18:53:56.297Z,100108.72
2022-12-13T18:56:23.593Z,100113.75
2022-12-13T18:58:50.997Z,100110.12
2022-12-13T19:01:18.391Z,100115.16
2022-12-13T19:03:48.356Z,100114.16
2022-12-13T19:06:16.998Z,100114.87
2022-12-13T19:08:45.913Z,100110.56
2022-12-13T19:11:12.789Z,100113.38
2022-12-13T19:13:39.825Z,100117.03
2022-12-13T19:16:08.256Z,100110.22
2022-12-13T19:18:35.574Z,100121.22
2022-12-13T19:21:02.618Z,100115.13
2022-12-13T19:23:29.844Z,100126.56
2022-12-13T19:25:56.832Z,100125.31
2022-12-13T19:28:23.821Z,100121.87
2022-12-13T19:30:50.743Z,100123.31
2022-12-13T19:33:18.661Z,100117.56
2022-12-13T19:35:49.434Z,100111.31
2022-12-13T19:38:16.205Z,100124.31
2022-12-13T19:40:42.895Z,100124.72
2022-12-13T19:43:11.487Z,100121.00
2022-12-13T19:45:38.702Z,100128.34
2022-12-13T19:48:05.379Z,100124.31
2022-12-13T19:50:32.351Z,100129.75
2022-12-13T19:52:59.018Z,100116.28
2022-12-13T19:55:26.030Z,100136.38
2022-12-13T19:57:53.141Z,100136.91
2022-12-13T20:00:20.145Z,100127.88
2022-12-13T20:02:47.023Z,100139.16
2022-12-13T20:05:14.023Z,100137.78
2022-12-13T20:07:41.100Z,100132.94
2022-12-13T20:10:08.557Z,100131.91
2022-12-13T20:12:40.883Z,100130.94
2022-12-13T20:15:08.230Z,100128.78
2022-12-13T20:17:35.595Z,100131.03
2022-12-13T20:20:02.918Z,100130.00
2022-12-13T20:22:30.218Z,100131.34
2022-12-13T20:24:59.059Z,100122.13
2022-12-13T20:27:26.016Z,100118.09
2022-12-13T20:29:53.023Z,100121.09
2022-12-13T20:32:21.198Z,100117.53
2022-12-13T20:34:54.770Z,100117.47
2022-12-13T20:37:22.324Z,100123.31
2022-12-13T20:39:49.356Z,100121.66
2022-12-13T20:42:16.076Z,100116.78
2022-12-13T20:44:42.945Z,100116.41
2022-12-13T20:47:10.270Z,100111.87
2022-12-13T20:49:37.460Z,100113.47
2022-12-13T20:52:04.369Z,100110.06
2022-12-13T20:54:31.285Z,100111.81
2022-12-13T20:57:18.152Z,100105.69
2022-12-13T20:59:49.496Z,100108.31
2022-12-13T21:02:17.438Z,100095.44
2022-12-13T21:04:44.217Z,100092.50
2022-12-13T21:07:13.542Z,100086.97
2022-12-13T21:09:40.680Z,100078.97
2022-12-13T21:12:07.504Z,100084.34
2022-12-13T21:14:34.764Z,100087.63
2022-12-13T21:17:02.122Z,100084.87
2022-12-13T21:19:34.425Z,100095.69
2022-12-13T21:22:02.881Z,100089.34
2022-12-13T21:24:29.820Z,100088.28
2022-12-13T21:26:57.239Z,100081.22
2022-12-13T21:29:24.352Z,100069.00
2022-12-13T21:31:51.174Z,100070.50
2022-12-13T21:34:19.297Z,100069.16
2022-12-13T21:36:47.469Z,100070.25
2022-12-13T21:39:15.778Z,100060.00
2022-12-13T21:41:43.366Z,100059.59
2022-12-13T21:44:14.491Z,100059.41
2022-12-13T21:49:29.121Z,100066.34
2022-12-13T21:51:57.237Z,100058.06
2022-12-13T21:54:24.104Z,100052.09
2022-12-13T21:57:09.788Z,100061.88
2022-12-13T21:59:36.495Z,100052.94
2022-12-13T22:02:17.023Z,100056.09
2022-12-13T22:04:43.947Z,100061.13
2022-12-13T22:07:12.431Z,100058.44
2022-12-13T22:09:39.752Z,100054.59
2022-12-13T22:12:10.416Z,100044.28
2022-12-13T22:14:37.848Z,100045.78
2022-12-13T22:17:04.709Z,100045.81
2022-12-13T22:19:31.445Z,100045.56
2022-12-13T22:21:58.294Z,100038.97
2022-12-13T22:24:25.475Z,100034.31
2022-12-13T22:26:52.296Z,100033.22
2022-12-13T22:29:18.960Z,100034.41
2022-12-13T22:31:48.860Z,100020.37
2022-12-13T22:34:16.351Z,100028.44
2022-12-13T22:36:43.157Z,100026.59
2022-12-13T22:39:17.086Z,100023.16
2022-12-13T22:41:44.065Z,100027.97
2022-12-13T22:44:15.756Z,100017.50
2022-12-13T22:46:42.715Z,100022.12
2022-12-13T22:49:11.605Z,100014.28
2022-12-13T22:51:38.413Z,100017.03
2022-12-13T22:54:05.695Z,100004.97
2022-12-13T22:56:32.684Z,100014.19
2022-12-13T22:59:04.143Z,100006.22
2022-12-13T23:01:31.828Z,100001.81
2022-12-13T23:03:59.009Z,100004.56
2022-12-13T23:06:29.834Z,100006.69
2022-12-13T23:08:57.640Z,100009.44
2022-12-13T23:11:43.498Z,100009.78
2022-12-13T23:14:14.269Z,100005.41
2022-12-13T23:16:41.355Z,100002.53
2022-12-13T23:19:40.324Z,99999.28
2022-12-13T23:21:57.647Z,99998.56
2022-12-13T23:24:27.858Z,99996.09
2022-12-13T23:26:54.602Z,100000.88
2022-12-13T23:29:21.403Z,100000.56
2022-12-13T23:31:49.249Z,99991.97
2022-12-13T23:34:16.175Z,99991.81
2022-12-13T23:36:43.259Z,99993.03
2022-12-13T23:39:11.462Z,99999.22
2022-12-13T23:41:38.992Z,99986.63
2022-12-13T23:44:06.919Z,99986.19
2022-12-13T23:46:35.850Z,99983.53
2022-12-13T23:49:04.848Z,99980.47
2022-12-13T23:51:31.923Z,99973.13
2022-12-13T23:53:59.409Z,99959.97
2022-12-13T23:56:26.120Z,99965.94
2022-12-13T23:58:53.218Z,99976.13
